地図

経路データ

SID SEASON NUMBER BASIN SUBBASIN NAME ISO_TIME NATURE LAT LON WMO_WIND WMO_PRES WMO_AGENCY TRACK_TYPE DIST2LAND LANDFALL IFLAG USA_AGENCY USA_ATCF_ID USA_LAT USA_LON USA_RECORD USA_STATUS USA_WIND USA_PRES USA_SSHS USA_R34_NE USA_R34_SE USA_R34_SW USA_R34_NW USA_R50_NE USA_R50_SE USA_R50_SW USA_R50_NW USA_R64_NE USA_R64_SE USA_R64_SW USA_R64_NW USA_POCI USA_ROCI USA_RMW USA_EYE TOKYO_LAT TOKYO_LON TOKYO_GRADE TOKYO_WIND TOKYO_PRES TOKYO_R50_DIR TOKYO_R50_LONG TOKYO_R50_SHORT TOKYO_R30_DIR TOKYO_R30_LONG TOKYO_R30_SHORT TOKYO_LAND CMA_LAT CMA_LON CMA_CAT CMA_WIND CMA_PRES HKO_LAT HKO_LON HKO_CAT HKO_WIND HKO_PRES NEWDELHI_LAT NEWDELHI_LON NEWDELHI_GRADE NEWDELHI_WIND NEWDELHI_PRES NEWDELHI_CI NEWDELHI_DP NEWDELHI_POCI REUNION_LAT REUNION_LON REUNION_TYPE REUNION_WIND REUNION_PRES REUNION_TNUM REUNION_CI REUNION_RMW REUNION_R34_NE REUNION_R34_SE REUNION_R34_SW REUNION_R34_NW REUNION_R50_NE REUNION_R50_SE REUNION_R50_SW REUNION_R50_NW REUNION_R64_NE REUNION_R64_SE REUNION_R64_SW REUNION_R64_NW BOM_LAT BOM_LON BOM_TYPE BOM_WIND BOM_PRES BOM_TNUM BOM_CI BOM_RMW BOM_R34_NE BOM_R34_SE BOM_R34_SW BOM_R34_NW BOM_R50_NE BOM_R50_SE BOM_R50_SW BOM_R50_NW BOM_R64_NE BOM_R64_SE BOM_R64_SW BOM_R64_NW BOM_ROCI BOM_POCI BOM_EYE BOM_POS_METHOD BOM_PRES_METHOD NADI_LAT NADI_LON NADI_CAT NADI_WIND NADI_PRES WELLINGTON_LAT WELLINGTON_LON WELLINGTON_WIND WELLINGTON_PRES DS824_LAT DS824_LON DS824_STAGE DS824_WIND DS824_PRES TD9636_LAT TD9636_LON TD9636_STAGE TD9636_WIND TD9636_PRES TD9635_LAT TD9635_LON TD9635_WIND TD9635_PRES TD9635_ROCI NEUMANN_LAT NEUMANN_LON NEUMANN_CLASS NEUMANN_WIND NEUMANN_PRES MLC_LAT MLC_LON MLC_CLASS MLC_WIND MLC_PRES USA_GUST BOM_GUST BOM_GUST_PER REUNION_GUST REUNION_GUST_PER USA_SEAHGT USA_SEARAD_NE USA_SEARAD_SE USA_SEARAD_SW USA_SEARAD_NW STORM_SPEED STORM_DIR
2000299N22291 2000 102 NA NA NOT_NAMED 2000-10-25 00:00:00 ET 21.5000 -69.5000 30 1009 hurdat_atl main 218 218 O_____________ hurdat_atl AL192000 21.5000 -69.5000 EX 30 1009 -4 11 339
2000299N22291 2000 102 NA NA NOT_NAMED 2000-10-25 03:00:00 ET 21.9999 -69.7075 main 263 263 P_____________ AL192000 21.9999 -69.7075 EX 32 1008 -4 11 335
2000299N22291 2000 102 NA NA NOT_NAMED 2000-10-25 06:00:00 ET 22.5000 -70.0000 35 1007 hurdat_atl main 308 308 O_____________ hurdat_atl AL192000 22.5000 -70.0000 EX 35 1007 -4 12 326
2000299N22291 2000 102 NA NA NOT_NAMED 2000-10-25 09:00:00 ET 23.0001 -70.4274 main 334 325 P_____________ AL192000 23.0001 -70.4274 EX 35 1006 -4 13 320
2000299N22291 2000 102 NA NA NOT_NAMED 2000-10-25 12:00:00 ET 23.5000 -70.9000 35 1006 hurdat_atl main 335 335 O_____________ hurdat_atl AL192000 23.5000 -70.9000 EX 35 1006 -4 13 319
2000299N22291 2000 102 NA NA NOT_NAMED 2000-10-25 15:00:00 ET 23.9851 -71.3672 main 353 353 P_____________ AL192000 23.9851 -71.3672 EX 35 1005 -4 12 324
2000299N22291 2000 102 NA NA NOT_NAMED 2000-10-25 18:00:00 SS 24.5000 -71.7000 35 1005 hurdat_atl main 392 392 O_____________ hurdat_atl AL192000 24.5000 -71.7000 SS 35 1005 -2 12 342
2000299N22291 2000 102 NA NA NOT_NAMED 2000-10-25 21:00:00 SS 25.1073 -71.7608 main 452 452 P_____________ AL192000 25.1073 -71.7608 SS 35 1004 -2 12 1
2000299N22291 2000 102 NA NA NOT_NAMED 2000-10-26 00:00:00 SS 25.7000 -71.7000 35 1004 hurdat_atl main 520 520 O_____________ hurdat_atl AL192000 25.7000 -71.7000 SS 35 1004 -2 11 3
2000299N22291 2000 102 NA NA NOT_NAMED 2000-10-26 03:00:00 SS 26.1800 -71.6926 main 574 574 P_____________ AL192000 26.1800 -71.6926 SS 35 1003 -2 9 0
2000299N22291 2000 102 NA NA NOT_NAMED 2000-10-26 06:00:00 SS 26.6000 -71.7000 35 1003 hurdat_atl main 617 617 O_____________ hurdat_atl AL192000 26.6000 -71.7000 SS 35 1003 -2 8 357
2000299N22291 2000 102 NA NA NOT_NAMED 2000-10-26 09:00:00 SS 27.0000 -71.7276 main 661 660 P_____________ AL192000 27.0000 -71.7276 SS 37 1002 -2 8 354
2000299N22291 2000 102 NA NA NOT_NAMED 2000-10-26 12:00:00 SS 27.4000 -71.8000 40 1002 hurdat_atl main 668 668 O_____________ hurdat_atl AL192000 27.4000 -71.8000 SS 40 1002 -2 9 348
2000299N22291 2000 102 NA NA NOT_NAMED 2000-10-26 15:00:00 SS 27.8425 -71.9275 main 677 673 P_____________ AL192000 27.8425 -71.9275 SS 42 1001 -2 9 344
2000299N22291 2000 102 NA NA NOT_NAMED 2000-10-26 18:00:00 SS 28.3000 -72.1000 45 1000 hurdat_atl main 685 683 O_____________ hurdat_atl AL192000 28.3000 -72.1000 SS 45 1000 -2 10 340
2000299N22291 2000 102 NA NA NOT_NAMED 2000-10-26 21:00:00 SS 28.7576 -72.3148 main 699 697 P_____________ AL192000 28.7576 -72.3148 SS 47 998 -2 10 339
2000299N22291 2000 102 NA NA NOT_NAMED 2000-10-27 00:00:00 SS 29.2000 -72.5000 50 997 hurdat_atl main 710 676 O_____________ hurdat_atl AL192000 29.2000 -72.5000 SS 50 997 -2 9 344
2000299N22291 2000 102 NA NA NOT_NAMED 2000-10-27 03:00:00 SS 29.5999 -72.5876 main 676 639 P_____________ AL192000 29.5999 -72.5876 SS 50 997 -2 8 354
2000299N22291 2000 102 NA NA NOT_NAMED 2000-10-27 06:00:00 SS 30.0000 -72.6000 50 997 hurdat_atl main 639 602 O_____________ hurdat_atl AL192000 30.0000 -72.6000 SS 50 997 -2 8 357
2000299N22291 2000 102 NA NA NOT_NAMED 2000-10-27 09:00:00 SS 30.3823 -72.6236 main 602 564 P_____________ AL192000 30.3823 -72.6236 SS 50 997 -2 9 5
2000299N22291 2000 102 NA NA NOT_NAMED 2000-10-27 12:00:00 SS 30.9000 -72.5000 50 997 hurdat_atl main 564 528 O_____________ hurdat_atl AL192000 30.9000 -72.5000 SS 50 997 -2 14 19
2000299N22291 2000 102 NA NA NOT_NAMED 2000-10-27 15:00:00 SS 31.6978 -72.1112 main 527 501 P_____________ AL192000 31.6978 -72.1112 SS 50 996 -2 19 24
2000299N22291 2000 102 NA NA NOT_NAMED 2000-10-27 18:00:00 SS 32.6000 -71.6000 50 996 hurdat_atl main 503 475 O_____________ hurdat_atl AL192000 32.6000 -71.6000 SS 50 996 -2 19 25
2000299N22291 2000 102 NA NA NOT_NAMED 2000-10-27 21:00:00 SS 33.4149 -71.1419 main 482 467 P_____________ AL192000 33.4149 -71.1419 SS 50 995 -2 18 25
2000299N22291 2000 102 NA NA NOT_NAMED 2000-10-28 00:00:00 SS 34.2000 -70.7000 50 994 hurdat_atl main 471 463 O_____________ hurdat_atl AL192000 34.2000 -70.7000 SS 50 994 -2 17 22
2000299N22291 2000 102 NA NA NOT_NAMED 2000-10-28 03:00:00 SS 35.0087 -70.3658 main 469 469 P_____________ AL192000 35.0087 -70.3658 SS 50 993 -2 16 24
2000299N22291 2000 102 NA NA NOT_NAMED 2000-10-28 06:00:00 SS 35.7000 -69.9000 50 992 hurdat_atl main 504 504 O_____________ hurdat_atl AL192000 35.7000 -69.9000 SS 50 992 -2 15 43
2000299N22291 2000 102 NA NA NOT_NAMED 2000-10-28 09:00:00 SS 36.0991 -69.1306 main 575 575 P_____________ AL192000 36.0991 -69.1306 SS 50 991 -2 17 61
2000299N22291 2000 102 NA NA NOT_NAMED 2000-10-28 12:00:00 SS 36.5000 -68.1000 50 990 hurdat_atl main 599 572 O_____________ hurdat_atl AL192000 36.5000 -68.1000 SS 50 990 -2 21 61
2000299N22291 2000 102 NA NA NOT_NAMED 2000-10-28 15:00:00 SS 37.1223 -66.8783 main 576 559 P_____________ AL192000 37.1223 -66.8783 SS 52 987 -2 26 54
2000299N22291 2000 102 NA NA NOT_NAMED 2000-10-28 18:00:00 SS 38.0000 -65.5000 55 984 hurdat_atl main 562 508 O_____________ hurdat_atl AL192000 38.0000 -65.5000 SS 55 984 -2 29 49
2000299N22291 2000 102 NA NA NOT_NAMED 2000-10-28 21:00:00 SS 39.0568 -64.0770 main 499 405 P_____________ AL192000 39.0568 -64.0770 SS 55 981 -2 34 42
2000299N22291 2000 102 NA NA NOT_NAMED 2000-10-29 00:00:00 SS 40.5000 -62.6000 55 978 hurdat_atl main 400 341 O_____________ hurdat_atl AL192000 40.5000 -62.6000 SS 55 978 -2 39 35
2000299N22291 2000 102 NA NA NOT_NAMED 2000-10-29 02:00:00 SS 41.7000 -61.6000 55 976 hurdat_atl main 341 306 O_____________ hurdat_atl AL192000 41.7000 -61.6000 I SS 55 976 -2 42 31
2000299N22291 2000 102 NA NA NOT_NAMED 2000-10-29 03:00:00 SS 42.3108 -61.1264 main 299 168 P_____________ AL192000 42.3108 -61.1264 SS 53 976 -2 39 27
2000299N22291 2000 102 NA NA NOT_NAMED 2000-10-29 06:00:00 ET 44.0000 -60.0000 50 980 hurdat_atl main 159 83 O_____________ hurdat_atl AL192000 44.0000 -60.0000 EX 50 980 -4 31 22
2000299N22291 2000 102 NA NA NOT_NAMED 2000-10-29 09:00:00 ET 45.1677 -59.5384 main 81 32 P_____________ AL192000 45.1677 -59.5384 EX 47 986 -4 20 10
2000299N22291 2000 102 NA NA NOT_NAMED 2000-10-29 12:00:00 ET 46.0000 -59.5000 45 992 hurdat_atl main 32 O_____________ hurdat_atl AL192000 46.0000 -59.5000 EX 45 992 -4 17 2

IBTrACS Databaseについて

本データベースは、米国NOAAが公開する1842年以降の世界の熱帯低気圧のベストトラックデータアーカイブInternational Best Track Archive for Climate Stewardship (IBTrACS)を、ウェブで閲覧しやすい形式に変換したものです。

最終更新日:2021-10-21